Time;durP1;ratioP1;P1;durP2;ratioP2;P2;SDS_P1;SDS_P2;PMS_P1;PMS_P2;Temp;Humidity;BMP_temperature;BMP_pressure;BME280_temperature;BME280_humidity;BME280_pressure;Samples;Min_cycle;Max_cycle;Signal;HPM_P1;HPM_P2
2023/10/24 00:01:49;;;;;;;13.73;7.82;;;12.90;86.70;;;;;;9166936;19;20018;-74
2023/10/24 00:04:59;;;;;;;12.82;7.75;;;13.00;86.70;;;;;;9164949;19;20026;-73
2023/10/24 00:08:05;;;;;;;15.65;8.57;;;12.90;86.70;;;;;;9164744;19;20023;-73
2023/10/24 00:11:15;;;;;;;13.95;8.63;;;12.90;86.80;;;;;;9163047;19;20018;-72
2023/10/24 00:14:21;;;;;;;11.98;7.85;;;12.90;86.90;;;;;;9164268;19;20027;-73
2023/10/24 00:17:28;;;;;;;13.80;8.23;;;12.90;86.90;;;;;;9164053;19;20010;-73
2023/10/24 00:20:33;;;;;;;13.95;8.38;;;12.90;86.90;;;;;;9166823;19;20385;-73
2023/10/24 00:23:41;;;;;;;11.88;7.18;;;13.00;86.90;;;;;;9164576;19;20491;-76
2023/10/24 00:26:49;;;;;;;15.88;7.50;;;12.90;86.90;;;;;;9165929;19;20040;-74
2023/10/24 00:29:57;;;;;;;13.23;7.57;;;13.00;87.00;;;;;;9162507;19;20461;-73
2023/10/24 00:33:02;;;;;;;17.10;8.27;;;13.00;86.90;;;;;;9168000;19;20032;-73
2023/10/24 00:36:13;;;;;;;17.25;7.72;;;12.90;86.90;;;;;;9165193;19;20144;-73
2023/10/24 00:39:19;;;;;;;16.42;8.52;;;13.00;87.00;;;;;;9164941;19;20386;-73
2023/10/24 00:42:29;;;;;;;11.93;7.30;;;13.00;87.00;;;;;;9166507;19;20014;-72
2023/10/24 00:45:37;;;;;;;15.02;8.10;;;12.90;87.00;;;;;;9168330;19;20015;-72
2023/10/24 00:48:47;;;;;;;16.90;8.13;;;13.00;87.10;;;;;;9171824;19;20014;-73
2023/10/24 00:51:53;;;;;;;17.25;7.85;;;13.00;87.10;;;;;;9175363;19;20010;-72
2023/10/24 00:55:02;;;;;;;11.63;7.15;;;13.00;87.10;;;;;;9174916;19;21220;-72
2023/10/24 00:58:11;;;;;;;16.67;7.35;;;13.00;87.10;;;;;;9175031;19;20018;-72
2023/10/24 01:01:19;;;;;;;13.57;7.13;;;13.00;87.20;;;;;;9174894;19;20721;-72
2023/10/24 01:04:26;;;;;;;10.13;6.60;;;13.00;87.20;;;;;;9172383;19;20020;-71
2023/10/24 01:07:35;;;;;;;14.23;7.28;;;13.00;87.20;;;;;;9172217;19;20010;-72
2023/10/24 01:10:40;;;;;;;15.20;6.65;;;13.00;87.30;;;;;;9174281;19;20021;-72
2023/10/24 01:13:52;;;;;;;13.82;6.68;;;13.00;87.30;;;;;;9169412;19;20025;-71
2023/10/24 01:16:58;;;;;;;12.00;7.18;;;13.00;87.20;;;;;;9172694;19;20022;-72
2023/10/24 01:20:07;;;;;;;12.93;6.80;;;13.00;87.20;;;;;;9173709;19;20019;-72
2023/10/24 01:23:15;;;;;;;12.80;6.18;;;13.00;87.30;;;;;;9170255;19;20025;-72
2023/10/24 01:26:24;;;;;;;11.73;6.30;;;13.00;87.30;;;;;;9171995;19;20116;-74
2023/10/24 01:29:30;;;;;;;14.13;6.88;;;13.00;87.40;;;;;;9171649;19;20529;-71
2023/10/24 01:32:37;;;;;;;12.95;6.25;;;13.00;87.40;;;;;;9171368;19;20021;-73
2023/10/24 01:35:44;;;;;;;10.18;5.68;;;13.10;87.40;;;;;;9172585;19;20107;-72
2023/10/24 01:38:54;;;;;;;11.95;5.50;;;13.00;87.40;;;;;;9173017;19;20581;-71
2023/10/24 01:42:00;;;;;;;12.30;5.30;;;13.10;87.50;;;;;;9174525;19;20034;-72
2023/10/24 01:45:09;;;;;;;7.28;4.28;;;13.10;87.50;;;;;;9172538;19;20045;-71
2023/10/24 01:48:14;;;;;;;8.00;4.47;;;13.10;87.50;;;;;;9171954;19;20014;-72
2023/10/24 01:51:22;;;;;;;7.45;4.43;;;13.10;87.50;;;;;;9170993;19;20019;-72
2023/10/24 01:54:30;;;;;;;12.32;5.28;;;13.10;87.60;;;;;;9172656;19;20043;-72
2023/10/24 01:57:37;;;;;;;8.00;4.45;;;13.10;87.60;;;;;;9171875;19;20523;-74
2023/10/24 02:00:43;;;;;;;13.10;4.55;;;13.10;87.60;;;;;;9171078;19;20466;-74
2023/10/24 02:03:50;;;;;;;6.88;4.10;;;13.10;87.60;;;;;;9172215;19;20025;-72
2023/10/24 02:06:56;;;;;;;9.90;4.10;;;13.10;87.60;;;;;;9168450;19;20022;-74
2023/10/24 02:10:07;;;;;;;7.22;3.70;;;13.10;87.60;;;;;;9168331;19;20014;-73
2023/10/24 02:13:12;;;;;;;9.38;3.53;;;13.10;88.30;;;;;;9166478;19;20041;-73
2023/10/24 02:16:20;;;;;;;7.18;3.92;;;13.10;87.70;;;;;;9170215;19;20018;-73
2023/10/24 02:19:26;;;;;;;4.43;3.30;;;13.10;87.70;;;;;;9169141;19;20018;-72
2023/10/24 02:22:34;;;;;;;9.80;3.42;;;13.10;87.70;;;;;;9170100;19;20007;-73
2023/10/24 02:25:42;;;;;;;6.88;3.30;;;13.20;87.90;;;;;;9169632;19;20037;-72
2023/10/24 02:28:50;;;;;;;5.70;2.85;;;13.10;87.70;;;;;;9169753;19;20075;-72
2023/10/24 02:31:55;;;;;;;8.35;3.28;;;13.10;87.80;;;;;;9169627;19;20015;-72
2023/10/24 02:35:03;;;;;;;6.68;3.08;;;13.20;87.80;;;;;;9169207;19;20006;-73
2023/10/24 02:38:08;;;;;;;8.73;3.65;;;13.10;87.90;;;;;;9169788;19;20460;-72
2023/10/24 02:41:18;;;;;;;7.20;3.85;;;13.10;87.80;;;;;;9169335;19;20025;-71
2023/10/24 02:44:25;;;;;;;10.27;3.90;;;13.10;87.90;;;;;;9168761;19;20507;-72
2023/10/24 02:47:32;;;;;;;11.13;4.85;;;13.20;87.90;;;;;;9168203;19;20626;-73
2023/10/24 02:50:38;;;;;;;8.55;4.32;;;13.10;87.90;;;;;;9167187;19;20019;-72
2023/10/24 02:53:45;;;;;;;8.75;4.40;;;13.20;88.00;;;;;;9168515;19;20381;-72
2023/10/24 02:56:53;;;;;;;11.93;5.22;;;13.20;88.00;;;;;;9167505;19;20068;-71
2023/10/24 03:00:04;;;;;;;12.30;5.53;;;13.20;88.00;;;;;;9169485;19;20019;-71
2023/10/24 03:03:10;;;;;;;10.90;4.80;;;13.20;88.00;;;;;;9167875;19;20014;-71
2023/10/24 03:06:19;;;;;;;8.40;5.65;;;13.20;88.00;;;;;;9167789;19;20013;-71
2023/10/24 03:09:25;;;;;;;14.40;5.43;;;13.20;88.00;;;;;;9165261;19;20381;-70
2023/10/24 03:12:35;;;;;;;14.50;5.35;;;13.20;88.10;;;;;;9160660;19;20034;-72
2023/10/24 03:15:41;;;;;;;11.13;5.65;;;13.20;88.20;;;;;;9166125;19;20033;-71
2023/10/24 03:18:48;;;;;;;16.73;6.07;;;13.20;88.20;;;;;;9166323;19;20018;-71
2023/10/24 03:22:11;;;;;;;16.52;5.72;;;13.20;88.20;;;;;;9163140;19;20248;-71
2023/10/24 03:25:19;;;;;;;15.23;5.88;;;13.30;88.30;;;;;;9169181;19;20010;-71
2023/10/24 03:28:27;;;;;;;12.43;5.78;;;13.30;88.30;;;;;;9168105;19;20656;-71
2023/10/24 03:31:34;;;;;;;13.50;4.90;;;13.30;88.30;;;;;;9166401;19;20019;-70
2023/10/24 03:34:42;;;;;;;10.35;5.03;;;13.30;88.40;;;;;;9165914;19;20368;-70
2023/10/24 03:37:50;;;;;;;11.30;5.45;;;13.30;88.30;;;;;;9167248;19;20015;-72
2023/10/24 03:40:56;;;;;;;9.10;5.68;;;13.30;88.80;;;;;;9169380;19;20369;-70
2023/10/24 03:44:07;;;;;;;9.63;5.30;;;13.30;88.30;;;;;;9167742;19;20010;-72
2023/10/24 03:47:12;;;;;;;12.55;5.47;;;13.30;88.30;;;;;;9169242;19;20018;-70
2023/10/24 03:50:20;;;;;;;13.10;5.70;;;13.30;88.20;;;;;;9166527;19;20018;-70
2023/10/24 03:53:25;;;;;;;11.02;5.47;;;13.40;88.40;;;;;;9167225;19;20018;-71
2023/10/24 03:56:34;;;;;;;9.45;5.30;;;13.30;88.40;;;;;;9166974;19;20015;-73
2023/10/24 03:59:42;;;;;;;7.55;5.45;;;13.30;88.30;;;;;;9166536;19;20103;-71
2023/10/24 04:02:53;;;;;;;10.68;5.15;;;13.30;88.30;;;;;;9168867;19;20018;-71
2023/10/24 04:05:59;;;;;;;11.10;5.00;;;13.30;88.40;;;;;;9165370;19;20032;-71
2023/10/24 04:09:07;;;;;;;7.47;5.18;;;13.40;88.40;;;;;;9168810;19;20018;-71
2023/10/24 04:12:12;;;;;;;7.28;4.93;;;13.40;88.40;;;;;;9160034;19;20029;-71
2023/10/24 04:15:23;;;;;;;8.55;4.95;;;13.40;88.40;;;;;;9165393;19;20018;-71
2023/10/24 04:18:29;;;;;;;8.18;4.88;;;13.40;88.40;;;;;;9166864;19;20018;-71
2023/10/24 04:21:36;;;;;;;10.73;5.18;;;13.40;88.40;;;;;;9166476;19;20014;-71
2023/10/24 04:24:42;;;;;;;7.82;4.70;;;13.40;88.40;;;;;;9165702;19;20074;-72
2023/10/24 04:27:49;;;;;;;7.20;4.43;;;13.40;88.40;;;;;;9166800;19;20016;-71
2023/10/24 04:31:00;;;;;;;11.57;5.03;;;13.40;88.40;;;;;;9167171;19;20032;-71
2023/10/24 04:34:08;;;;;;;6.05;4.40;;;13.40;88.40;;;;;;9166589;19;20046;-71
2023/10/24 04:37:14;;;;;;;7.72;4.45;;;13.40;88.40;;;;;;9169349;19;20083;-71
2023/10/24 04:40:21;;;;;;;10.15;4.50;;;13.40;88.40;;;;;;9165778;19;20023;-71
2023/10/24 04:43:27;;;;;;;8.05;4.10;;;13.40;88.40;;;;;;9164872;19;20014;-71
2023/10/24 04:46:40;;;;;;;8.93;5.30;;;13.40;88.30;;;;;;9165911;19;20014;-71
2023/10/24 04:49:46;;;;;;;17.23;5.15;;;13.40;88.30;;;;;;9166121;19;20018;-71
2023/10/24 04:52:54;;;;;;;12.68;4.57;;;13.40;88.30;;;;;;9166886;19;20071;-71
2023/10/24 04:55:59;;;;;;;7.90;5.10;;;13.40;88.40;;;;;;9168450;19;20026;-71
2023/10/24 04:59:08;;;;;;;7.35;4.97;;;13.40;88.30;;;;;;9166238;19;20014;-71
2023/10/24 05:02:16;;;;;;;11.95;5.18;;;13.40;88.40;;;;;;9166787;19;20674;-71
2023/10/24 05:05:24;;;;;;;9.65;4.50;;;13.40;88.40;;;;;;9165500;19;20025;-71
2023/10/24 05:08:29;;;;;;;12.45;6.13;;;13.40;88.40;;;;;;9165218;19;20582;-71
2023/10/24 05:11:39;;;;;;;8.15;4.75;;;13.30;88.30;;;;;;9157613;19;20464;-70
2023/10/24 05:14:45;;;;;;;9.55;5.35;;;13.30;88.30;;;;;;9162610;19;20891;-70
2023/10/24 05:17:55;;;;;;;7.72;4.75;;;13.40;88.40;;;;;;9164420;19;20754;-71
2023/10/24 05:21:01;;;;;;;7.35;4.93;;;13.40;88.40;;;;;;9164165;19;20018;-71
2023/10/24 05:24:09;;;;;;;9.80;4.43;;;13.30;88.30;;;;;;9162197;19;20096;-70
2023/10/24 05:27:15;;;;;;;9.48;4.47;;;13.40;88.40;;;;;;9162867;19;20019;-70
2023/10/24 05:30:22;;;;;;;11.88;4.90;;;13.40;88.40;;;;;;9161069;19;20021;-71
2023/10/24 05:33:30;;;;;;;11.70;6.28;;;13.30;88.30;;;;;;9171840;19;20024;-71
2023/10/24 05:36:40;;;;;;;8.15;5.30;;;13.40;88.40;;;;;;9172775;19;20014;-71
2023/10/24 05:39:45;;;;;;;10.48;4.80;;;13.40;88.40;;;;;;9172753;19;20022;-71
2023/10/24 05:42:53;;;;;;;10.85;5.90;;;13.40;88.40;;;;;;9171778;19;20025;-70
2023/10/24 05:45:59;;;;;;;9.90;5.25;;;13.40;88.50;;;;;;9172100;19;20048;-70
2023/10/24 05:49:09;;;;;;;6.88;4.60;;;13.40;88.50;;;;;;9172003;19;20010;-71
2023/10/24 05:52:14;;;;;;;8.32;4.85;;;13.30;88.50;;;;;;9167500;19;20048;-70
2023/10/24 05:55:21;;;;;;;6.53;4.57;;;13.30;88.40;;;;;;9169820;19;20029;-70
2023/10/24 05:58:27;;;;;;;8.07;4.47;;;13.30;88.40;;;;;;9171110;19;20018;-71
2023/10/24 06:01:35;;;;;;;6.75;4.60;;;13.40;88.50;;;;;;9169151;19;20488;-70
2023/10/24 06:04:43;;;;;;;8.30;4.40;;;13.30;88.40;;;;;;9168598;19;20321;-70
2023/10/24 06:07:51;;;;;;;6.85;4.07;;;13.30;88.50;;;;;;9167779;19;20022;-71
2023/10/24 06:10:57;;;;;;;7.53;4.18;;;13.30;88.50;;;;;;9165573;19;20477;-71
2023/10/24 06:14:05;;;;;;;10.95;5.10;;;13.30;88.40;;;;;;9164321;19;20007;-71
2023/10/24 06:17:16;;;;;;;5.82;4.57;;;13.30;88.40;;;;;;9170247;19;20382;-72
2023/10/24 06:20:26;;;;;;;7.60;4.93;;;13.30;88.40;;;;;;9170612;19;20014;-71
2023/10/24 06:23:31;;;;;;;11.13;5.15;;;13.30;88.40;;;;;;9170751;19;20351;-71
2023/10/24 06:26:39;;;;;;;6.82;4.47;;;13.30;88.30;;;;;;9172549;19;20019;-71
2023/10/24 06:29:46;;;;;;;8.13;5.18;;;13.30;88.40;;;;;;9169912;19;20126;-71
2023/10/24 06:32:53;;;;;;;8.65;5.07;;;13.20;88.30;;;;;;9167242;19;20662;-72
2023/10/24 06:36:02;;;;;;;9.23;5.18;;;13.30;88.40;;;;;;9162311;19;20014;-70
2023/10/24 06:39:10;;;;;;;7.82;5.43;;;13.30;88.40;;;;;;9163660;19;20475;-71
2023/10/24 06:42:16;;;;;;;7.00;5.30;;;13.20;88.30;;;;;;9162735;19;20018;-70
2023/10/24 06:45:23;;;;;;;9.95;5.65;;;13.20;88.40;;;;;;9167840;19;20073;-70
2023/10/24 06:48:31;;;;;;;8.18;5.18;;;13.20;88.30;;;;;;9169031;19;20022;-70
2023/10/24 06:51:41;;;;;;;9.85;5.70;;;13.20;88.30;;;;;;9169925;19;20025;-70
2023/10/24 06:54:46;;;;;;;7.57;5.40;;;13.20;88.30;;;;;;9169216;19;20547;-70
2023/10/24 06:57:55;;;;;;;7.93;5.65;;;13.20;88.30;;;;;;9169918;19;20011;-70
2023/10/24 07:01:01;;;;;;;10.27;5.75;;;13.10;88.30;;;;;;9167387;19;20018;-71
2023/10/24 07:04:08;;;;;;;10.65;6.78;;;13.20;88.30;;;;;;9169701;19;20816;-70
2023/10/24 07:07:17;;;;;;;12.20;5.97;;;13.20;88.30;;;;;;9170055;19;20035;-71
2023/10/24 07:10:24;;;;;;;12.50;5.97;;;13.20;88.30;;;;;;9165357;19;20006;-70
2023/10/24 07:13:30;;;;;;;9.95;6.10;;;13.10;88.30;;;;;;9161879;19;20648;-70
2023/10/24 07:16:37;;;;;;;8.15;6.03;;;13.10;88.20;;;;;;9170403;19;20583;-70
2023/10/24 07:19:43;;;;;;;8.80;6.07;;;13.10;88.20;;;;;;9168470;19;20369;-70
2023/10/24 07:22:55;;;;;;;11.02;6.57;;;13.10;88.20;;;;;;9169194;19;20006;-70
2023/10/24 07:26:00;;;;;;;11.18;6.78;;;13.10;88.30;;;;;;9166933;19;20023;-70
2023/10/24 07:29:08;;;;;;;9.70;6.68;;;13.00;88.20;;;;;;9168415;19;20018;-70
2023/10/24 07:32:14;;;;;;;9.18;6.30;;;13.00;88.20;;;;;;9166637;19;20014;-70
2023/10/24 07:35:21;;;;;;;17.15;6.90;;;13.00;88.20;;;;;;9168065;19;20090;-70
2023/10/24 07:38:29;;;;;;;11.32;6.68;;;13.00;88.10;;;;;;9166446;19;20440;-70
2023/10/24 07:41:37;;;;;;;11.90;6.25;;;13.00;88.20;;;;;;9166616;19;20029;-70
2023/10/24 07:44:42;;;;;;;12.00;6.28;;;13.00;88.20;;;;;;9166346;19;20392;-71
2023/10/24 07:47:50;;;;;;;11.55;7.38;;;13.00;88.20;;;;;;9163655;19;20014;-71
2023/10/24 07:50:56;;;;;;;9.55;6.70;;;13.00;88.30;;;;;;9164575;19;20018;-71
2023/10/24 07:54:07;;;;;;;9.77;6.22;;;13.00;88.20;;;;;;9160666;19;20014;-70
2023/10/24 07:57:12;;;;;;;12.55;6.53;;;13.00;88.20;;;;;;9162075;19;20035;-71
2023/10/24 08:00:20;;;;;;;7.60;5.38;;;12.90;88.20;;;;;;9162998;19;20010;-70
2023/10/24 08:03:25;;;;;;;8.48;5.57;;;13.00;88.20;;;;;;9164993;19;20056;-70
2023/10/24 08:06:34;;;;;;;7.18;5.40;;;12.90;88.10;;;;;;9165631;19;20365;-70
2023/10/24 08:09:42;;;;;;;7.97;5.15;;;12.90;88.80;;;;;;9164365;19;20023;-71
2023/10/24 08:12:49;;;;;;;7.65;4.78;;;12.90;88.20;;;;;;9161115;19;20476;-70
2023/10/24 08:15:58;;;;;;;8.52;5.30;;;12.90;88.20;;;;;;9164104;19;20014;-70
2023/10/24 08:19:06;;;;;;;8.63;5.22;;;12.90;88.20;;;;;;9164219;19;20014;-71
2023/10/24 08:22:11;;;;;;;6.45;4.68;;;12.90;88.20;;;;;;9165263;19;20032;-70
2023/10/24 08:25:21;;;;;;;6.93;4.63;;;12.90;88.10;;;;;;9164516;19;20025;-70
2023/10/24 08:28:27;;;;;;;9.35;5.07;;;12.90;88.20;;;;;;9168780;19;20022;-71
2023/10/24 08:31:35;;;;;;;7.18;5.00;;;12.80;88.20;;;;;;9161755;19;20020;-70
2023/10/24 08:34:57;;;;;;;7.68;4.85;;;13.00;88.30;;;;;;9168029;19;20022;-70
2023/10/24 08:38:06;;;;;;;7.85;5.57;;;12.90;88.20;;;;;;9163555;19;20017;-70
2023/10/24 08:41:14;;;;;;;8.15;4.50;;;12.90;88.10;;;;;;9166203;19;20028;-70
2023/10/24 08:44:23;;;;;;;7.15;4.85;;;12.80;88.10;;;;;;9164682;19;20006;-71
2023/10/24 08:47:30;;;;;;;6.15;4.45;;;12.90;88.10;;;;;;9162025;19;20025;-71
2023/10/24 08:50:38;;;;;;;9.65;4.60;;;12.90;88.10;;;;;;9161955;19;20094;-71
2023/10/24 08:53:44;;;;;;;8.63;4.78;;;12.90;88.10;;;;;;9161713;19;20014;-72
2023/10/24 08:56:54;;;;;;;7.22;4.90;;;12.90;88.00;;;;;;9164402;19;20011;-71
2023/10/24 09:00:00;;;;;;;8.60;5.22;;;12.90;88.00;;;;;;9162697;19;20033;-71
2023/10/24 09:03:08;;;;;;;7.20;4.95;;;12.90;88.00;;;;;;9166902;19;20021;-69
2023/10/24 09:06:16;;;;;;;8.27;4.82;;;12.90;88.10;;;;;;9165086;19;20583;-70
2023/10/24 09:09:25;;;;;;;5.63;4.18;;;12.90;88.00;;;;;;9170322;19;20641;-70
2023/10/24 09:12:37;;;;;;;6.95;4.63;;;13.00;88.10;;;;;;9167881;19;20367;-70
2023/10/24 09:15:44;;;;;;;7.85;4.82;;;13.00;88.10;;;;;;9174192;19;20066;-70
2023/10/24 09:18:50;;;;;;;8.43;4.80;;;13.00;88.10;;;;;;9172141;19;20029;-70
2023/10/24 09:21:58;;;;;;;6.53;4.50;;;13.00;88.00;;;;;;9174637;19;20010;-70
2023/10/24 09:25:12;;;;;;;;;;;13.00;87.90;;;;;;9175031;19;20082;-69
2023/10/24 09:28:25;;;;;;;8.32;4.80;;;13.10;87.90;;;;;;9182565;19;20272;-71
2023/10/24 09:31:31;;;;;;;7.90;5.18;;;13.10;87.90;;;;;;9183297;19;20019;-70
2023/10/24 09:34:44;;;;;;;11.73;5.30;;;13.10;87.90;;;;;;9182803;19;20019;-70
2023/10/24 09:37:50;;;;;;;9.18;5.50;;;13.10;87.90;;;;;;9174398;19;20019;-70
2023/10/24 09:40:58;;;;;;;6.78;4.75;;;13.20;87.90;;;;;;9174642;19;20369;-70
2023/10/24 09:44:07;;;;;;;9.27;5.47;;;13.20;87.80;;;;;;9170194;19;20086;-70
2023/10/24 09:47:15;;;;;;;9.63;5.70;;;13.20;87.80;;;;;;9169581;19;20018;-70
2023/10/24 09:50:22;;;;;;;10.85;4.93;;;13.20;87.80;;;;;;9169381;19;20015;-70
2023/10/24 09:53:30;;;;;;;11.20;5.47;;;13.30;87.80;;;;;;9170402;19;20063;-69
2023/10/24 09:56:35;;;;;;;6.85;5.10;;;13.30;87.80;;;;;;9171509;19;20010;-70
2023/10/24 09:59:48;;;;;;;9.23;6.00;;;13.30;87.80;;;;;;9170806;19;20423;-70
2023/10/24 10:02:56;;;;;;;8.57;4.97;;;13.40;87.70;;;;;;9170851;19;20051;-69
2023/10/24 10:06:08;;;;;;;8.07;5.03;;;13.40;87.70;;;;;;9170520;19;20011;-70
2023/10/24 10:09:15;;;;;;;10.50;5.78;;;13.40;87.60;;;;;;9168343;19;20018;-71
2023/10/24 10:12:23;;;;;;;10.38;6.55;;;13.40;87.60;;;;;;9164417;19;20015;-70
2023/10/24 10:16:03;;;;;;;14.57;6.47;;;13.40;87.90;;;;;;9166558;19;20085;-70
2023/10/24 10:19:39;;;;;;;14.63;6.00;;;13.50;87.60;;;;;;9165946;19;20019;-70
2023/10/24 10:22:57;;;;;;;8.43;5.97;;;13.50;87.50;;;;;;9169829;19;20026;-71
2023/10/24 10:26:09;;;;;;;9.75;6.50;;;13.50;87.60;;;;;;9169253;19;20022;-71
2023/10/24 10:29:26;;;;;;;8.38;6.15;;;13.50;87.60;;;;;;9167544;19;20709;-71
2023/10/24 10:32:43;;;;;;;9.98;6.43;;;13.60;87.70;;;;;;9169114;19;20018;-71
2023/10/24 10:36:12;;;;;;;10.63;6.75;;;13.80;87.80;;;;;;9169742;19;20015;-71
2023/10/24 10:39:19;;;;;;;10.63;6.57;;;13.70;87.70;;;;;;9169848;19;20038;-70
2023/10/24 10:42:46;;;;;;;12.75;6.72;;;13.80;87.70;;;;;;9169271;19;20082;-70
2023/10/24 10:46:14;;;;;;;10.63;6.60;;;13.90;87.70;;;;;;9166118;19;20015;-71
2023/10/24 10:49:22;;;;;;;9.65;5.93;;;14.00;87.70;;;;;;9167534;19;20058;-70
2023/10/24 10:52:51;;;;;;;7.38;5.68;;;14.10;87.70;;;;;;9165691;19;20025;-70
2023/10/24 10:56:16;;;;;;;10.52;6.28;;;14.10;87.60;;;;;;9166419;19;20380;-70
2023/10/24 10:59:38;;;;;;;9.63;5.60;;;14.20;87.60;;;;;;9165580;19;20015;-70
2023/10/24 11:03:01;;;;;;;9.73;4.72;;;14.40;87.50;;;;;;9166741;19;20025;-70
2023/10/24 11:06:14;;;;;;;9.65;5.00;;;14.40;87.30;;;;;;9167609;19;20042;-69
2023/10/24 11:09:21;;;;;;;8.90;5.30;;;14.40;87.20;;;;;;9166031;19;20022;-70
2023/10/24 11:12:30;;;;;;;13.07;5.22;;;14.50;87.20;;;;;;9162151;19;20530;-70
2023/10/24 11:15:40;;;;;;;8.60;6.15;;;14.50;87.10;;;;;;9167196;19;20034;-70
2023/10/24 11:18:50;;;;;;;6.97;5.18;;;14.60;87.20;;;;;;9170010;19;20090;-70
2023/10/24 11:21:58;;;;;;;8.15;4.90;;;14.60;87.10;;;;;;9168230;19;20018;-69
2023/10/24 11:25:11;;;;;;;12.30;5.60;;;14.70;86.90;;;;;;9167416;19;20026;-69
2023/10/24 11:28:20;;;;;;;10.18;4.75;;;14.70;86.80;;;;;;9168845;19;20022;-69
2023/10/24 11:31:28;;;;;;;9.90;5.20;;;14.70;86.70;;;;;;9162872;19;20018;-69
2023/10/24 11:34:35;;;;;;;7.57;4.82;;;14.70;86.60;;;;;;9167287;19;20484;-70
2023/10/24 11:37:46;;;;;;;4.97;3.75;;;14.80;86.50;;;;;;9166791;19;20475;-69
2023/10/24 11:40:53;;;;;;;7.63;4.00;;;14.70;86.30;;;;;;9165667;19;20034;-69
2023/10/24 11:44:00;;;;;;;6.38;4.50;;;14.80;86.40;;;;;;9164717;19;20017;-69
2023/10/24 11:47:08;;;;;;;9.40;4.93;;;14.80;86.30;;;;;;9166477;19;20018;-70
2023/10/24 11:50:15;;;;;;;5.38;4.07;;;14.80;86.30;;;;;;9164018;19;20074;-70
2023/10/24 11:53:26;;;;;;;6.63;4.32;;;14.80;86.30;;;;;;9166070;19;20026;-70
2023/10/24 11:56:34;;;;;;;11.95;4.03;;;14.80;86.10;;;;;;9164623;19;20026;-70
2023/10/24 11:59:40;;;;;;;6.88;3.97;;;14.80;86.00;;;;;;9164259;19;20015;-71
2023/10/24 12:02:48;;;;;;;8.88;4.28;;;14.80;86.00;;;;;;9165807;19;20022;-70
2023/10/24 12:05:54;;;;;;;6.57;4.32;;;14.80;86.00;;;;;;9166144;19;20443;-70
2023/10/24 12:09:05;;;;;;;7.53;4.05;;;14.80;86.00;;;;;;9166788;19;20026;-70
2023/10/24 12:12:15;;;;;;;5.00;3.83;;;14.90;86.00;;;;;;9162268;19;20021;-70
2023/10/24 12:15:22;;;;;;;5.65;3.75;;;14.90;85.90;;;;;;9164437;19;20018;-69
2023/10/24 12:18:29;;;;;;;7.18;3.78;;;14.90;86.00;;;;;;9163621;19;20341;-69
2023/10/24 12:21:37;;;;;;;7.90;3.72;;;14.90;85.90;;;;;;9165698;19;20018;-70
2023/10/24 12:24:45;;;;;;;6.45;3.47;;;14.90;85.90;;;;;;9165649;19;20506;-69
2023/10/24 12:27:52;;;;;;;8.50;4.57;;;14.90;85.70;;;;;;9162980;19;20020;-69
2023/10/24 12:30:58;;;;;;;10.45;3.78;;;14.90;85.70;;;;;;9162514;19;20078;-70
2023/10/24 12:34:06;;;;;;;5.75;3.33;;;15.00;85.70;;;;;;9164178;19;20010;-69
2023/10/24 12:37:11;;;;;;;6.45;3.25;;;15.00;85.60;;;;;;9165027;19;20014;-71
2023/10/24 12:40:22;;;;;;;8.82;3.50;;;15.00;85.50;;;;;;9163659;19;20018;-70
2023/10/24 12:43:29;;;;;;;4.38;2.60;;;15.00;85.40;;;;;;9172677;19;20029;-71
2023/10/24 12:46:36;;;;;;;6.72;3.25;;;14.90;85.40;;;;;;9172431;19;20021;-70
2023/10/24 12:49:42;;;;;;;5.78;3.33;;;14.90;85.30;;;;;;9170704;19;20631;-69
2023/10/24 12:52:50;;;;;;;3.10;2.65;;;14.90;85.30;;;;;;9171925;19;20010;-69
2023/10/24 12:55:58;;;;;;;5.63;3.03;;;14.90;85.30;;;;;;9171508;19;20639;-69
2023/10/24 12:59:06;;;;;;;9.23;4.10;;;14.90;85.20;;;;;;9176343;19;20022;-70
2023/10/24 13:02:12;;;;;;;7.57;3.33;;;14.90;85.20;;;;;;9171382;19;20015;-70
2023/10/24 13:05:19;;;;;;;5.07;2.65;;;14.90;85.20;;;;;;9169395;19;20019;-72
2023/10/24 13:08:26;;;;;;;6.03;3.03;;;14.90;85.20;;;;;;9170175;19;20059;-70
2023/10/24 13:11:37;;;;;;;4.90;2.55;;;14.90;85.20;;;;;;9167418;19;20014;-70
2023/10/24 13:14:42;;;;;;;5.45;2.60;;;14.90;85.10;;;;;;9171526;19;20060;-70
2023/10/24 13:17:50;;;;;;;4.88;2.40;;;14.90;85.10;;;;;;9171938;19;20007;-70
2023/10/24 13:20:55;;;;;;;10.70;3.25;;;14.90;85.20;;;;;;9170310;19;20039;-70
2023/10/24 13:24:03;;;;;;;4.00;2.90;;;14.90;85.10;;;;;;9170759;19;20010;-70
2023/10/24 13:27:11;;;;;;;5.03;3.38;;;14.90;85.10;;;;;;9170921;19;20086;-70
2023/10/24 13:30:19;;;;;;;7.55;2.83;;;14.90;85.10;;;;;;9170533;19;20471;-70
2023/10/24 13:33:45;;;;;;;7.20;3.50;;;14.90;85.00;;;;;;9169242;19;21627;-70
2023/10/24 13:37:15;;;;;;;6.70;3.03;;;14.80;85.00;;;;;;9169235;19;20011;-70
2023/10/24 13:40:21;;;;;;;4.03;2.40;;;14.90;85.10;;;;;;9171949;19;20014;-68
2023/10/24 13:43:32;;;;;;;5.05;3.05;;;14.80;85.00;;;;;;9172949;19;20015;-68
2023/10/24 13:46:38;;;;;;;4.07;3.00;;;14.80;85.00;;;;;;9169245;19;20058;-69
2023/10/24 13:49:45;;;;;;;5.55;2.92;;;14.70;85.00;;;;;;9169613;19;20025;-70
2023/10/24 13:52:51;;;;;;;8.10;2.92;;;14.70;85.10;;;;;;9168926;19;20018;-69
2023/10/24 13:55:58;;;;;;;5.28;3.00;;;14.70;85.00;;;;;;9170555;19;20014;-70
2023/10/24 13:59:07;;;;;;;4.45;3.30;;;14.70;85.00;;;;;;9170139;19;20503;-69
2023/10/24 14:02:14;;;;;;;5.50;3.50;;;14.70;85.10;;;;;;9169373;19;20017;-70
2023/10/24 14:05:20;;;;;;;6.18;3.20;;;14.60;85.10;;;;;;9169572;19;20358;-69
2023/10/24 14:08:27;;;;;;;7.18;3.35;;;14.70;85.10;;;;;;9169107;19;20006;-70
2023/10/24 14:11:33;;;;;;;7.70;2.88;;;14.60;85.20;;;;;;9163456;19;20075;-70
2023/10/24 14:14:43;;;;;;;5.28;2.78;;;14.60;85.20;;;;;;9168498;19;20008;-69
2023/10/24 14:17:48;;;;;;;5.35;2.78;;;14.60;85.20;;;;;;9165769;19;20014;-69
2023/10/24 14:20:56;;;;;;;5.97;3.03;;;14.60;85.20;;;;;;9169814;19;20021;-69
2023/10/24 14:24:02;;;;;;;4.70;2.83;;;14.60;85.20;;;;;;9168299;19;20060;-70
2023/10/24 14:27:09;;;;;;;3.88;2.72;;;14.60;85.30;;;;;;9169412;19;20753;-69
2023/10/24 14:30:18;;;;;;;3.03;2.60;;;14.60;85.40;;;;;;9167300;19;20023;-69
2023/10/24 14:33:25;;;;;;;8.30;2.42;;;14.60;85.40;;;;;;9165440;19;20011;-70
2023/10/24 14:36:31;;;;;;;7.70;2.50;;;14.60;85.30;;;;;;9166622;19;20477;-71
2023/10/24 14:39:38;;;;;;;4.55;2.63;;;14.60;85.40;;;;;;9168591;19;20020;-72
2023/10/24 14:42:44;;;;;;;4.40;2.47;;;14.60;85.40;;;;;;9169702;19;20010;-70
2023/10/24 14:45:54;;;;;;;3.38;2.67;;;14.50;85.40;;;;;;9168528;19;20381;-70
2023/10/24 14:49:00;;;;;;;8.57;2.50;;;14.50;85.40;;;;;;9168467;19;20120;-69
2023/10/24 14:52:08;;;;;;;4.45;2.60;;;14.50;85.50;;;;;;9167672;19;20025;-69
2023/10/24 14:55:13;;;;;;;7.53;2.58;;;14.50;86.20;;;;;;9169260;19;20052;-71
2023/10/24 14:58:22;;;;;;;5.22;2.53;;;14.50;85.70;;;;;;9165080;19;20010;-70
2023/10/24 15:01:31;;;;;;;3.47;2.33;;;14.50;85.50;;;;;;9168743;19;20018;-70
2023/10/24 15:04:42;;;;;;;4.90;2.33;;;14.50;85.60;;;;;;9165242;19;20535;-71
2023/10/24 15:07:48;;;;;;;7.57;2.10;;;14.50;85.60;;;;;;9164698;19;20022;-70
2023/10/24 15:10:56;;;;;;;3.20;2.10;;;14.50;85.70;;;;;;9167241;19;20014;-70
2023/10/24 15:14:01;;;;;;;6.45;1.90;;;14.50;85.60;;;;;;9162350;19;20011;-69
2023/10/24 15:17:12;;;;;;;3.25;1.83;;;14.50;85.60;;;;;;9167764;19;20011;-70
2023/10/24 15:20:18;;;;;;;5.30;2.17;;;14.50;85.60;;;;;;9168698;19;20500;-70
2023/10/24 15:23:25;;;;;;;1.95;1.75;;;14.50;86.00;;;;;;9170549;19;20510;-70
2023/10/24 15:26:31;;;;;;;4.50;1.83;;;14.50;85.60;;;;;;9170243;19;20480;-70
2023/10/24 15:29:39;;;;;;;7.85;1.90;;;14.50;85.60;;;;;;9167415;19;20019;-71
2023/10/24 15:32:48;;;;;;;4.70;2.13;;;14.50;85.50;;;;;;9165580;19;20015;-71
2023/10/24 15:35:57;;;;;;;2.70;1.75;;;14.60;86.10;;;;;;9165168;19;20809;-70
2023/10/24 15:39:02;;;;;;;4.03;2.13;;;14.50;86.30;;;;;;9165763;19;20015;-70
2023/10/24 15:42:10;;;;;;;2.53;1.50;;;14.50;86.90;;;;;;9165396;19;20011;-70
2023/10/24 15:45:17;;;;;;;3.78;1.63;;;14.50;86.90;;;;;;9165633;19;20014;-70
2023/10/24 15:48:30;;;;;;;3.40;1.77;;;14.50;89.60;;;;;;9165257;19;20014;-70
2023/10/24 15:51:35;;;;;;;1.70;1.50;;;14.60;88.10;;;;;;9164608;19;20427;-69
2023/10/24 15:54:42;;;;;;;5.60;2.60;;;13.80;86.60;;;;;;9164694;19;20013;-70
2023/10/24 15:57:48;;;;;;;8.07;2.22;;;14.50;86.90;;;;;;9160572;19;20033;-70
2023/10/24 16:00:56;;;;;;;3.30;1.80;;;14.50;88.70;;;;;;9161011;19;20025;-69
2023/10/24 16:04:04;;;;;;;4.40;1.80;;;14.40;87.60;;;;;;9153151;19;20032;-69
2023/10/24 16:07:11;;;;;;;3.10;1.67;;;14.40;90.80;;;;;;9158320;19;21753;-69
2023/10/24 16:10:19;;;;;;;8.18;2.28;;;14.20;85.00;;;;;;9159256;19;20412;-70
2023/10/24 16:13:27;;;;;;;3.83;1.85;;;14.20;85.00;;;;;;9154723;19;20381;-69
2023/10/24 16:16:33;;;;;;;4.07;1.75;;;14.20;85.10;;;;;;9155604;19;20018;-69